createdAt,value
2023-04-12T00:02:06.603Z,99527.44
2023-04-12T00:07:09.877Z,99518.28
2023-04-12T00:12:11.014Z,99501.72
2023-04-12T00:17:12.208Z,99484.41
2023-04-12T00:22:13.397Z,99472.88
2023-04-12T00:27:14.686Z,99475.44
2023-04-12T00:32:15.883Z,99457.97
2023-04-12T00:37:17.256Z,99438.84
2023-04-12T00:42:18.469Z,99427.94
2023-04-12T00:47:19.743Z,99418.84
2023-04-12T00:52:22.137Z,99399.88
2023-04-12T00:57:23.411Z,99390.00
2023-04-12T01:02:24.724Z,99388.44
2023-04-12T01:07:26.069Z,99374.72
2023-04-12T01:12:27.272Z,99370.81
2023-04-12T01:17:29.089Z,99362.50
2023-04-12T01:22:30.284Z,99345.88
2023-04-12T01:27:33.347Z,99335.53
2023-04-12T01:32:34.569Z,99326.13
2023-04-12T01:37:35.841Z,99314.72
2023-04-12T01:42:37.092Z,99307.16
2023-04-12T01:47:38.298Z,99297.47
2023-04-12T01:52:41.088Z,99278.19
2023-04-12T01:57:42.265Z,99262.03
2023-04-12T02:02:44.938Z,99256.34
2023-04-12T02:07:46.256Z,99250.66
2023-04-12T02:12:47.435Z,99229.84
2023-04-12T02:17:48.676Z,99212.13
2023-04-12T02:22:50.958Z,99188.16
2023-04-12T02:27:53.266Z,99188.72
2023-04-12T02:32:56.280Z,99187.97
2023-04-12T02:37:57.810Z,99178.88
2023-04-12T02:42:59.045Z,99160.88
2023-04-12T02:48:00.458Z,99162.25
2023-04-12T02:53:01.634Z,99139.03
2023-04-12T02:58:02.830Z,99115.34
2023-04-12T03:03:04.188Z,99103.63
2023-04-12T03:08:05.728Z,99084.69
2023-04-12T03:13:06.891Z,99074.53
2023-04-12T03:18:08.103Z,99063.91
2023-04-12T03:23:09.295Z,99052.19
2023-04-12T03:28:10.560Z,99034.72
2023-04-12T03:33:11.743Z,99026.88
2023-04-12T03:38:12.945Z,99015.94
2023-04-12T03:43:14.140Z,99000.56
2023-04-12T03:48:16.707Z,98974.25
2023-04-12T03:53:17.924Z,98977.47
2023-04-12T03:58:19.191Z,98964.41
2023-04-12T04:03:22.721Z,98943.53
2023-04-12T04:08:24.191Z,98918.97
2023-04-12T04:13:25.459Z,98914.50
2023-04-12T04:18:26.723Z,98892.84
2023-04-12T04:23:29.109Z,98897.47
2023-04-12T04:28:30.491Z,98870.59
2023-04-12T04:33:31.687Z,98877.03
2023-04-12T04:38:33.710Z,98867.84
2023-04-12T04:43:35.651Z,98860.19
2023-04-12T04:48:37.106Z,98861.69
2023-04-12T04:53:38.391Z,98856.47
2023-04-12T04:58:39.617Z,98847.28
2023-04-12T05:03:41.748Z,98846.50
2023-04-12T05:08:43.039Z,98847.56
2023-04-12T05:13:44.252Z,98842.06
2023-04-12T05:18:46.066Z,98832.06
2023-04-12T05:23:47.317Z,98824.22
2023-04-12T05:28:48.595Z,98809.31
2023-04-12T05:33:49.777Z,98795.34
2023-04-12T05:38:52.174Z,98789.06
2023-04-12T05:43:53.401Z,98782.28
2023-04-12T05:48:54.735Z,98779.38
2023-04-12T05:53:56.055Z,98774.28
2023-04-12T05:58:57.604Z,98770.63
2023-04-12T06:03:59.089Z,98760.19
2023-04-12T06:09:01.142Z,98754.94
2023-04-12T06:14:02.376Z,98706.66
2023-04-12T06:19:03.653Z,98744.66
2023-04-12T06:24:04.788Z,98745.56
2023-04-12T06:29:05.992Z,98734.06
2023-04-12T06:34:07.166Z,98721.16
2023-04-12T06:39:08.491Z,98714.72
2023-04-12T06:44:09.876Z,98713.31
2023-04-12T06:49:11.105Z,98700.09
2023-04-12T06:54:12.299Z,98693.94
2023-04-12T06:59:13.535Z,98674.41
2023-04-12T07:04:14.865Z,98661.81
2023-04-12T07:09:16.143Z,98660.56
2023-04-12T07:14:17.350Z,98650.38
2023-04-12T07:19:18.544Z,98643.28
2023-04-12T07:24:19.683Z,98630.84
2023-04-12T07:29:20.844Z,98628.84
2023-04-12T07:34:22.324Z,98621.75
2023-04-12T07:39:23.595Z,98611.28
2023-04-12T07:44:24.795Z,98600.91
2023-04-12T07:49:26.023Z,98590.13
2023-04-12T07:54:27.209Z,98583.06
2023-04-12T07:59:28.758Z,98571.84
2023-04-12T08:04:29.975Z,98583.69
2023-04-12T08:09:31.169Z,98586.78
2023-04-12T08:14:32.399Z,98582.75
2023-04-12T08:19:33.608Z,98576.72
2023-04-12T08:24:34.741Z,98572.78
2023-04-12T08:29:35.965Z,98575.00
2023-04-12T08:34:37.489Z,98574.75
2023-04-12T08:39:38.750Z,98566.03
2023-04-12T08:44:40.200Z,98555.84
2023-04-12T08:49:41.395Z,98558.38
2023-04-12T08:54:42.730Z,98560.44
2023-04-12T08:59:43.980Z,98558.78
2023-04-12T09:04:45.210Z,98557.72
2023-04-12T09:09:46.496Z,98545.78
2023-04-12T09:14:47.730Z,98545.34
2023-04-12T09:19:48.930Z,98540.13
2023-04-12T09:24:51.547Z,98534.97
2023-04-12T09:29:53.021Z,98545.69
2023-04-12T09:34:54.192Z,98541.88
2023-04-12T09:39:55.345Z,98532.47
2023-04-12T09:44:56.563Z,98532.13
2023-04-12T09:49:57.765Z,98536.50
2023-04-12T09:54:58.978Z,98525.44
2023-04-12T10:00:00.353Z,98527.75
2023-04-12T10:05:01.682Z,98526.91
2023-04-12T10:10:03.714Z,98518.34
2023-04-12T10:15:06.487Z,98510.56
2023-04-12T10:20:07.766Z,98496.09
2023-04-12T10:25:08.995Z,98490.56
2023-04-12T10:30:10.215Z,98491.63
2023-04-12T10:35:11.912Z,98482.97
2023-04-12T10:40:13.197Z,98480.25
2023-04-12T10:45:14.356Z,98473.78
2023-04-12T10:50:15.703Z,98487.88
2023-04-12T10:55:16.931Z,98484.28
2023-04-12T11:00:18.225Z,98487.19
2023-04-12T11:05:19.608Z,98493.44
2023-04-12T11:10:21.785Z,98502.19
2023-04-12T11:15:23.135Z,98514.94
2023-04-12T11:20:24.411Z,98523.22
2023-04-12T11:25:25.911Z,98535.81
2023-04-12T11:30:27.099Z,98534.16
2023-04-12T11:35:30.244Z,98525.88
2023-04-12T11:40:31.493Z,98521.81
2023-04-12T11:45:32.881Z,98526.34
2023-04-12T11:50:34.168Z,98521.97
2023-04-12T11:55:35.585Z,98529.72
2023-04-12T12:00:36.852Z,98530.47
2023-04-12T12:05:38.386Z,98530.31
2023-04-12T12:10:55.578Z,98519.41
2023-04-12T12:16:01.090Z,98522.88
2023-04-12T12:21:02.376Z,98537.41
2023-04-12T12:26:17.784Z,98532.06
2023-04-12T12:31:20.435Z,98539.88
2023-04-12T12:36:21.881Z,98532.91
2023-04-12T12:41:23.352Z,98525.78
2023-04-12T12:46:25.541Z,98515.47
2023-04-12T12:51:31.492Z,98518.53
2023-04-12T12:56:32.724Z,98510.41
2023-04-12T13:01:33.974Z,98506.00
2023-04-12T13:06:35.131Z,98508.81
2023-04-12T13:11:36.391Z,98502.47
2023-04-12T13:16:37.557Z,98509.81
2023-04-12T13:21:38.755Z,98506.69
2023-04-12T13:26:41.046Z,98515.38
2023-04-12T13:31:42.336Z,98515.75
2023-04-12T13:36:43.585Z,98519.22
2023-04-12T13:41:44.760Z,98524.53
2023-04-12T13:46:46.149Z,98522.41
2023-04-12T13:51:47.360Z,98513.19
2023-04-12T13:56:48.564Z,98517.94
2023-04-12T14:01:50.016Z,98503.19
2023-04-12T14:06:51.413Z,98501.88
2023-04-12T14:11:55.061Z,98509.31
2023-04-12T14:17:01.728Z,98511.59
2023-04-12T14:22:03.860Z,98505.53
2023-04-12T14:27:05.050Z,98503.81
2023-04-12T14:32:06.225Z,98512.59
2023-04-12T14:37:08.519Z,98520.31
2023-04-12T14:42:09.804Z,98537.59
2023-04-12T14:47:11.024Z,98539.47
2023-04-12T14:52:12.373Z,98539.00
2023-04-12T14:57:13.853Z,98551.06
2023-04-12T15:02:15.226Z,98558.38
2023-04-12T15:07:16.497Z,98553.09
2023-04-12T15:12:18.210Z,98542.03
2023-04-12T15:17:19.479Z,98549.34
2023-04-12T15:22:20.712Z,98555.34
2023-04-12T15:27:21.897Z,98565.78
2023-04-12T15:32:23.182Z,98568.91
2023-04-12T15:37:25.539Z,98580.22
2023-04-12T15:42:26.735Z,98588.47
2023-04-12T15:47:27.891Z,98576.72
2023-04-12T15:52:29.131Z,98589.09
2023-04-12T15:57:30.637Z,98613.69
2023-04-12T16:02:31.996Z,98606.44
2023-04-12T16:07:33.934Z,98627.16
2023-04-12T16:12:35.594Z,98648.63
2023-04-12T16:17:37.397Z,98647.63
2023-04-12T16:22:41.769Z,98657.50
2023-04-12T16:27:43.028Z,98673.09
2023-04-12T16:32:44.207Z,98655.09
2023-04-12T16:37:45.717Z,98660.91
2023-04-12T16:42:46.946Z,98653.75
2023-04-12T16:47:48.211Z,98683.66
2023-04-12T16:52:49.497Z,98676.84
2023-04-12T16:57:53.046Z,98664.81
2023-04-12T17:02:54.475Z,98663.09
2023-04-12T17:07:57.385Z,98653.56
2023-04-12T17:12:58.701Z,98659.53
2023-04-12T17:17:59.981Z,98652.31
2023-04-12T17:23:01.383Z,98659.25
2023-04-12T17:28:02.617Z,98662.06
2023-04-12T17:33:03.920Z,98660.16
2023-04-12T17:38:05.154Z,98659.22
2023-04-12T17:43:06.371Z,98651.53
2023-04-12T17:48:08.212Z,98654.03
2023-04-12T17:53:10.923Z,98661.34
2023-04-12T17:58:12.704Z,98667.47
2023-04-12T18:03:15.578Z,98669.78
2023-04-12T18:08:17.182Z,98675.91
2023-04-12T18:13:18.333Z,98672.13
2023-04-12T18:18:19.472Z,98671.25
2023-04-12T18:23:21.383Z,98669.28
2023-04-12T18:28:22.956Z,98673.75
2023-04-12T18:33:24.195Z,98698.19
2023-04-12T18:38:25.447Z,98706.34
2023-04-12T18:43:27.150Z,98706.34
2023-04-12T18:48:28.299Z,98711.59
2023-04-12T18:53:29.541Z,98709.13
2023-04-12T18:58:50.472Z,98718.34
2023-04-12T19:03:52.110Z,98715.28
2023-04-12T19:08:53.553Z,98700.66
2023-04-12T19:13:55.979Z,98717.44
2023-04-12T19:18:57.751Z,98718.84
2023-04-12T19:23:59.400Z,98718.38
2023-04-12T19:29:01.021Z,98719.59
2023-04-12T19:34:02.348Z,98724.53
2023-04-12T19:39:03.523Z,98721.75
2023-04-12T19:44:04.724Z,98706.53
2023-04-12T19:49:06.089Z,98696.50
2023-04-12T19:54:09.851Z,98712.09
2023-04-12T19:59:11.316Z,98718.06
2023-04-12T20:04:12.892Z,98724.38
2023-04-12T20:09:14.644Z,98721.28
2023-04-12T20:14:15.807Z,98722.16
2023-04-12T20:19:17.088Z,98726.81
2023-04-12T20:24:18.293Z,98718.50
2023-04-12T20:29:20.609Z,98714.28
2023-04-12T20:34:22.710Z,98712.56
2023-04-12T20:39:23.945Z,98711.75
2023-04-12T20:44:25.125Z,98708.19
2023-04-12T20:49:27.860Z,98698.44
2023-04-12T20:54:33.097Z,98702.72
2023-04-12T20:59:35.796Z,98714.50
2023-04-12T21:04:39.427Z,98702.69
2023-04-12T21:09:40.739Z,98704.44
2023-04-12T21:14:41.964Z,98712.28
2023-04-12T21:19:44.738Z,98755.00
2023-04-12T21:24:45.925Z,98777.50
2023-04-12T21:29:47.222Z,98787.97
2023-04-12T21:34:49.998Z,98778.16
2023-04-12T21:39:51.233Z,98765.59
2023-04-12T21:44:52.396Z,98758.47
2023-04-12T21:49:53.518Z,98761.22
2023-04-12T21:54:55.561Z,98734.19
2023-04-12T21:59:56.728Z,98736.03
2023-04-12T22:04:57.867Z,98731.56
2023-04-12T22:09:59.789Z,98694.63
2023-04-12T22:15:00.946Z,98707.94
2023-04-12T22:20:02.189Z,98690.25
2023-04-12T22:25:04.604Z,98693.63
2023-04-12T22:30:06.760Z,98681.91
2023-04-12T22:35:09.168Z,98679.31
2023-04-12T22:40:14.047Z,98684.38
2023-04-12T22:45:15.316Z,98677.06
2023-04-12T22:50:16.573Z,98667.63
2023-04-12T22:55:18.067Z,98661.47
2023-04-12T23:00:19.267Z,98656.47
2023-04-12T23:05:20.453Z,98632.69
2023-04-12T23:10:22.396Z,98625.44
2023-04-12T23:15:24.733Z,98627.75
2023-04-12T23:20:25.971Z,98626.13
2023-04-12T23:25:37.556Z,98617.16
2023-04-12T23:30:39.014Z,98617.94
2023-04-12T23:35:41.102Z,98611.38
2023-04-12T23:40:43.033Z,98599.81
2023-04-12T23:45:44.276Z,98598.44
2023-04-12T23:50:45.755Z,98596.81
2023-04-12T23:55:46.969Z,98545.63
